createdAt,value
2023-01-29T00:01:30.645Z,101411.13
2023-01-29T00:05:35.783Z,101409.88
2023-01-29T00:09:38.683Z,101410.04
2023-01-29T00:14:01.632Z,101414.58
2023-01-29T00:18:04.444Z,101407.79
2023-01-29T00:22:07.448Z,101404.52
2023-01-29T00:26:11.342Z,101402.36
2023-01-29T00:30:19.316Z,101395.48
2023-01-29T00:34:23.513Z,101388.27
2023-01-29T00:38:26.261Z,101381.77
2023-01-29T00:43:46.481Z,101372.06
2023-01-29T00:47:49.331Z,101359.81
2023-01-29T00:52:24.704Z,101361.66
2023-01-29T00:56:29.416Z,101353.63
2023-01-29T01:00:32.210Z,101353.67
2023-01-29T01:05:06.142Z,101349.60
2023-01-29T01:09:29.170Z,101344.34
2023-01-29T01:13:33.574Z,101345.91
2023-01-29T01:18:10.270Z,101341.17
2023-01-29T01:22:16.969Z,101339.29
2023-01-29T01:26:19.783Z,101335.63
2023-01-29T01:30:54.695Z,101333.61
2023-01-29T01:34:57.559Z,101327.98
2023-01-29T01:39:09.451Z,101320.94
2023-01-29T01:43:12.265Z,101326.09
2023-01-29T01:47:17.640Z,101323.02
2023-01-29T01:51:24.491Z,101325.64
2023-01-29T01:55:30.288Z,101319.61
2023-01-29T01:59:34.084Z,101320.02
2023-01-29T02:04:04.152Z,101317.05
2023-01-29T02:09:06.666Z,101315.91
2023-01-29T02:13:09.837Z,101325.93
2023-01-29T02:17:19.226Z,101330.82
2023-01-29T02:27:13.702Z,101331.29
2023-01-29T02:31:41.291Z,101319.27
2023-01-29T02:35:57.079Z,101306.28
2023-01-29T02:40:44.016Z,101303.92
2023-01-29T02:44:54.843Z,101304.73
2023-01-29T02:49:34.487Z,101304.48
2023-01-29T02:54:11.665Z,101308.93
2023-01-29T02:58:25.759Z,101311.73
2023-01-29T03:02:51.192Z,101315.20
2023-01-29T03:07:00.766Z,101311.01
2023-01-29T03:11:06.759Z,101316.15
2023-01-29T03:16:16.180Z,101313.87
2023-01-29T03:20:25.476Z,101326.77
2023-01-29T03:25:05.465Z,101322.54
2023-01-29T03:29:28.568Z,101323.95
2023-01-29T03:33:36.526Z,101318.70
2023-01-29T03:38:10.153Z,101295.55
2023-01-29T03:42:38.444Z,101300.70
2023-01-29T03:46:44.394Z,101301.67
2023-01-29T03:51:22.666Z,101308.20
2023-01-29T03:55:38.743Z,101310.31
2023-01-29T04:00:23.748Z,101310.23
2023-01-29T04:04:57.396Z,101301.65
2023-01-29T04:09:06.631Z,101301.52
2023-01-29T04:13:12.787Z,101304.88
2023-01-29T04:17:21.573Z,101299.82
2023-01-29T04:21:25.336Z,101292.31
2023-01-29T04:25:36.219Z,101290.05
2023-01-29T04:30:30.837Z,101277.67
2023-01-29T04:35:08.934Z,101271.07
2023-01-29T04:39:45.250Z,101265.29
2023-01-29T04:44:09.851Z,101261.19
2023-01-29T04:48:12.534Z,101250.13
2023-01-29T04:52:39.666Z,101245.96
2023-01-29T04:56:48.623Z,101249.75
2023-01-29T05:06:21.344Z,101246.45
2023-01-29T05:10:30.623Z,101232.13
2023-01-29T05:14:35.550Z,101226.08
2023-01-29T05:18:38.302Z,101217.98
2023-01-29T05:22:42.643Z,101220.51
2023-01-29T05:27:07.003Z,101211.67
2023-01-29T05:31:09.996Z,101209.14
2023-01-29T05:35:18.097Z,101201.98
2023-01-29T05:39:21.045Z,101203.96
2023-01-29T05:43:53.139Z,101202.83
2023-01-29T05:47:59.775Z,101199.69
2023-01-29T05:53:08.014Z,101195.39
2023-01-29T05:57:10.746Z,101189.77
2023-01-29T06:01:18.401Z,101188.20
2023-01-29T06:05:21.298Z,101188.34
2023-01-29T06:09:24.098Z,101204.17
2023-01-29T06:13:27.313Z,101209.39
2023-01-29T06:17:30.215Z,101210.60
2023-01-29T06:21:40.613Z,101211.93
2023-01-29T06:25:43.437Z,101220.30
2023-01-29T06:29:47.489Z,101216.81
2023-01-29T06:33:50.424Z,101221.64
2023-01-29T06:37:53.373Z,101224.35
2023-01-29T06:42:47.264Z,101238.39
2023-01-29T06:46:50.057Z,101240.13
2023-01-29T06:50:55.153Z,101241.17
2023-01-29T06:54:58.053Z,101252.95
2023-01-29T06:59:27.735Z,101266.02
2023-01-29T07:03:30.503Z,101272.15
2023-01-29T07:07:43.549Z,101265.64
2023-01-29T07:11:46.459Z,101275.31
2023-01-29T07:16:06.045Z,101264.42
2023-01-29T07:20:09.482Z,101266.83
2023-01-29T07:24:12.312Z,101267.17
2023-01-29T07:28:44.859Z,101266.20
2023-01-29T07:32:47.700Z,101270.41
2023-01-29T07:36:56.864Z,101269.34
2023-01-29T07:41:00.564Z,101279.52
2023-01-29T07:45:07.475Z,101271.59
2023-01-29T07:49:10.363Z,101269.05
2023-01-29T07:53:44.433Z,101268.56
2023-01-29T07:57:48.107Z,101254.45
2023-01-29T08:01:50.833Z,101252.70
2023-01-29T08:05:58.443Z,101237.91
2023-01-29T08:10:01.323Z,101231.06
2023-01-29T08:14:19.882Z,101214.21
2023-01-29T08:18:22.723Z,101225.61
2023-01-29T08:22:30.929Z,101215.72
2023-01-29T08:26:33.780Z,101205.48
2023-01-29T08:30:36.857Z,101191.30
2023-01-29T08:35:09.408Z,101185.98
2023-01-29T08:44:04.433Z,101184.97
2023-01-29T09:18:44.852Z,101176.40
2023-01-29T09:23:35.891Z,101174.88
2023-01-29T09:28:10.100Z,101169.65
2023-01-29T09:32:53.922Z,101161.95
2023-01-29T09:36:57.257Z,101157.73
2023-01-29T09:41:03.085Z,101158.79
2023-01-29T09:45:18.085Z,101154.70
2023-01-29T09:49:31.541Z,101157.39
2023-01-29T09:53:45.667Z,101156.59
2023-01-29T09:58:00.865Z,101153.52
2023-01-29T10:02:28.591Z,101140.90
2023-01-29T10:07:11.459Z,101134.23
2023-01-29T10:11:26.682Z,101128.29
2023-01-29T10:15:32.501Z,101124.16
2023-01-29T10:19:59.515Z,101127.42
2023-01-29T10:24:22.373Z,101125.26
2023-01-29T10:28:25.055Z,101125.58
2023-01-29T10:32:40.269Z,101119.96
2023-01-29T10:36:47.260Z,101110.99
2023-01-29T10:41:16.082Z,101109.15
2023-01-29T10:46:06.099Z,101099.15
2023-01-29T10:50:53.996Z,101091.34
2023-01-29T10:55:27.256Z,101077.95
2023-01-29T11:00:13.864Z,101069.19
2023-01-29T11:04:16.876Z,101063.96
2023-01-29T11:08:23.872Z,101055.13
2023-01-29T11:12:31.259Z,101052.98
2023-01-29T11:16:47.248Z,101050.04
2023-01-29T11:21:43.874Z,101044.48
2023-01-29T11:25:52.932Z,101035.29
2023-01-29T11:30:23.561Z,101030.34
2023-01-29T11:34:31.073Z,101030.97
2023-01-29T11:38:34.885Z,101029.35
2023-01-29T11:42:43.570Z,101026.42
2023-01-29T11:46:47.600Z,101009.44
2023-01-29T11:50:53.665Z,101002.66
2023-01-29T11:55:26.847Z,100995.67
2023-01-29T11:59:46.561Z,100985.14
2023-01-29T12:03:53.935Z,100980.52
2023-01-29T12:08:22.517Z,100968.36
2023-01-29T12:12:34.785Z,100966.09
2023-01-29T12:16:56.749Z,100960.98
2023-01-29T12:21:02.993Z,100964.44
2023-01-29T12:25:16.398Z,100964.30
2023-01-29T13:33:37.437Z,100880.58
2023-01-29T13:37:54.154Z,100883.30
2023-01-29T13:42:36.881Z,100880.30
2023-01-29T13:47:20.122Z,100879.11
2023-01-29T13:51:32.003Z,100870.98
2023-01-29T13:56:37.148Z,100870.54
2023-01-29T14:00:40.662Z,100862.59
2023-01-29T14:05:31.688Z,100858.90
2023-01-29T14:09:38.627Z,100855.98
2023-01-29T14:14:01.432Z,100856.21
2023-01-29T14:18:27.716Z,100858.50
2023-01-29T14:22:33.973Z,100856.34
2023-01-29T14:26:39.093Z,100856.65
2023-01-29T14:30:49.010Z,100867.77
2023-01-29T14:35:00.869Z,100872.43
2023-01-29T14:39:05.850Z,100871.25
2023-01-29T14:43:22.461Z,100870.41
2023-01-29T14:47:28.959Z,100867.77
2023-01-29T14:51:38.510Z,100865.39
2023-01-29T14:56:01.011Z,100859.33
2023-01-29T15:00:07.230Z,100853.41
2023-01-29T15:04:11.979Z,100843.67
2023-01-29T15:08:30.239Z,100845.85
2023-01-29T15:12:50.380Z,100852.05
2023-01-29T15:17:17.075Z,100850.31
2023-01-29T15:21:19.911Z,100847.38
2023-01-29T15:25:23.147Z,100855.86
2023-01-29T15:29:28.013Z,100855.27
2023-01-29T15:33:32.133Z,100855.71
2023-01-29T15:37:36.466Z,100854.59
2023-01-29T15:42:21.680Z,100859.02
2023-01-29T15:46:33.787Z,100857.05
2023-01-29T15:50:41.274Z,100858.51
2023-01-29T15:54:47.668Z,100862.10
2023-01-29T15:58:52.167Z,100854.02
2023-01-29T16:02:56.514Z,100854.02
2023-01-29T16:07:02.308Z,100847.94
2023-01-29T16:20:45.899Z,100841.02
2023-01-29T16:25:03.171Z,100840.92
2023-01-29T16:29:33.776Z,100837.88
2023-01-29T16:33:59.415Z,100837.97
2023-01-29T16:38:08.788Z,100837.45
2023-01-29T16:42:20.334Z,100835.25
2023-01-29T16:46:28.769Z,100827.73
2023-01-29T16:51:18.361Z,100823.18
2023-01-29T16:55:23.825Z,100818.92
2023-01-29T16:59:37.207Z,100816.45
2023-01-29T17:03:42.498Z,100814.85
2023-01-29T17:07:47.601Z,100803.76
2023-01-29T17:11:57.021Z,100799.95
2023-01-29T17:16:05.349Z,100794.64
2023-01-29T17:20:16.225Z,100790.02
2023-01-29T17:24:21.286Z,100786.20
2023-01-29T17:28:28.133Z,100782.96
2023-01-29T17:32:44.716Z,100778.03
2023-01-29T17:37:20.535Z,100772.14
2023-01-29T17:41:32.011Z,100776.64
2023-01-29T17:45:36.216Z,100778.87
2023-01-29T17:49:41.419Z,100778.34
2023-01-29T17:53:47.223Z,100771.98
2023-01-29T17:57:51.711Z,100770.63
2023-01-29T18:01:59.842Z,100763.16
2023-01-29T18:06:07.112Z,100759.10
2023-01-29T18:10:19.548Z,100748.14
2023-01-29T18:14:23.609Z,100740.48
2023-01-29T18:18:27.894Z,100735.71
2023-01-29T18:22:35.213Z,100725.60
2023-01-29T18:26:39.719Z,100723.66
2023-01-29T18:30:45.947Z,100719.34
2023-01-29T18:34:50.171Z,100716.65
2023-01-29T18:38:54.224Z,100707.62
2023-01-29T18:43:01.430Z,100706.83
2023-01-29T18:47:06.772Z,100698.21
2023-01-29T18:51:13.103Z,100694.66
2023-01-29T18:55:17.596Z,100688.70
2023-01-29T18:59:25.037Z,100685.08
2023-01-29T19:03:32.363Z,100681.27
2023-01-29T19:07:54.165Z,100670.83
2023-01-29T19:11:58.233Z,100671.52
2023-01-29T19:16:15.140Z,100670.91
2023-01-29T19:20:19.672Z,100670.09
2023-01-29T19:24:26.500Z,100673.23
2023-01-29T19:28:30.894Z,100677.09
2023-01-29T19:32:36.244Z,100671.61
2023-01-29T19:36:40.377Z,100660.50
2023-01-29T19:40:52.500Z,100652.04
2023-01-29T19:44:56.584Z,100640.77
2023-01-29T19:49:00.410Z,100628.11
2023-01-29T19:53:05.713Z,100625.27
2023-01-29T19:57:09.874Z,100624.73
2023-01-29T20:01:19.567Z,100614.89
2023-01-29T20:05:24.376Z,100613.83
2023-01-29T20:09:29.477Z,100611.20
2023-01-29T20:13:33.024Z,100619.77
2023-01-29T20:17:35.787Z,100614.23
2023-01-29T20:21:39.151Z,100605.10
2023-01-29T20:25:43.490Z,100607.77
2023-01-29T20:29:46.659Z,100607.71
2023-01-29T20:33:49.599Z,100604.61
2023-01-29T20:38:44.068Z,100607.86
2023-01-29T20:42:46.881Z,100603.09
2023-01-29T20:46:49.695Z,100602.98
2023-01-29T20:50:53.371Z,100601.39
2023-01-29T20:55:23.513Z,100589.30
2023-01-29T20:59:28.996Z,100581.02
2023-01-29T21:03:31.819Z,100581.09
2023-01-29T21:08:25.237Z,100580.86
2023-01-29T21:12:28.030Z,100570.66
2023-01-29T21:16:57.830Z,100569.79
2023-01-29T21:21:00.756Z,100557.45
2023-01-29T21:25:03.749Z,100545.55
2023-01-29T21:29:06.780Z,100535.57
2023-01-29T21:33:09.591Z,100531.14
2023-01-29T21:37:13.373Z,100519.22
2023-01-29T21:41:16.168Z,100520.27
2023-01-29T21:45:21.116Z,100518.63
2023-01-29T21:49:24.431Z,100512.46
2023-01-29T21:53:27.179Z,100507.27
2023-01-29T21:57:30.080Z,100499.27
2023-01-29T22:01:37.979Z,100492.08
2023-01-29T22:05:41.441Z,100488.16
2023-01-29T22:09:44.460Z,100488.82
2023-01-29T22:13:47.556Z,100484.69
2023-01-29T22:18:17.918Z,100483.13
2023-01-29T22:22:20.810Z,100479.17
2023-01-29T22:26:23.602Z,100471.95
2023-01-29T22:30:31.558Z,100459.17
2023-01-29T22:34:34.595Z,100446.23
2023-01-29T22:38:37.480Z,100437.77
2023-01-29T22:43:09.094Z,100425.58
2023-01-29T22:47:12.306Z,100415.36
2023-01-29T22:51:15.083Z,100408.35
2023-01-29T22:56:10.091Z,100400.77
2023-01-29T23:00:14.583Z,100391.52
2023-01-29T23:04:17.478Z,100376.55
2023-01-29T23:08:20.269Z,100372.19
2023-01-29T23:12:23.240Z,100359.20
2023-01-29T23:16:57.290Z,100348.94
2023-01-29T23:21:00.099Z,100335.34
2023-01-29T23:30:56.021Z,100314.88
2023-01-29T23:34:59.060Z,100305.65
2023-01-29T23:39:07.579Z,100295.84
2023-01-29T23:43:10.398Z,100284.42
2023-01-29T23:47:13.158Z,100279.33
2023-01-29T23:51:16.026Z,100268.03
2023-01-29T23:56:28.644Z,100261.45
